sensor_id;sensor_type;location;lat;lon;timestamp;pressure;altitude;pressure_sealevel;temperature;humidity
31121;BME280;17770;45.966;13.632;2023-01-29T00:01:36;101323.78;;;12.44;59.25
31121;BME280;17770;45.966;13.632;2023-01-29T00:04:01;101322.91;;;12.43;59.55
31121;BME280;17770;45.966;13.632;2023-01-29T00:06:27;101322.88;;;12.45;59.09
31121;BME280;17770;45.966;13.632;2023-01-29T00:08:53;101322.88;;;12.45;59.19
31121;BME280;17770;45.966;13.632;2023-01-29T00:11:19;101324.63;;;12.44;58.64
31121;BME280;17770;45.966;13.632;2023-01-29T00:13:45;101319.47;;;12.44;58.32
31121;BME280;17770;45.966;13.632;2023-01-29T00:16:11;101321.16;;;12.45;59.43
31121;BME280;17770;45.966;13.632;2023-01-29T00:18:37;101327.22;;;12.44;58.77
31121;BME280;17770;45.966;13.632;2023-01-29T00:21:07;101319.50;;;12.43;59.30
31121;BME280;17770;45.966;13.632;2023-01-29T00:23:32;101330.63;;;12.45;59.42
31121;BME280;17770;45.966;13.632;2023-01-29T00:25:59;101328.94;;;12.44;59.26
31121;BME280;17770;45.966;13.632;2023-01-29T00:28:24;101328.06;;;12.45;59.38
31121;BME280;17770;45.966;13.632;2023-01-29T00:30:50;101327.22;;;12.44;58.96
31121;BME280;17770;45.966;13.632;2023-01-29T00:33:16;101320.31;;;12.43;59.21
31121;BME280;17770;45.966;13.632;2023-01-29T00:35:42;101329.81;;;12.44;58.98
31121;BME280;17770;45.966;13.632;2023-01-29T00:38:08;101331.53;;;12.44;58.72
31121;BME280;17770;45.966;13.632;2023-01-29T00:40:36;101329.84;;;12.43;59.74
31121;BME280;17770;45.966;13.632;2023-01-29T00:43:22;101332.44;;;12.43;59.03
31121;BME280;17770;45.966;13.632;2023-01-29T00:46:06;101328.06;;;12.45;59.53
31121;BME280;17770;45.966;13.632;2023-01-29T00:48:32;101332.44;;;12.43;59.25
31121;BME280;17770;45.966;13.632;2023-01-29T00:50:59;101333.25;;;12.43;59.20
31121;BME280;17770;45.966;13.632;2023-01-29T00:53:25;101329.81;;;12.44;59.18
31121;BME280;17770;45.966;13.632;2023-01-29T00:55:50;101328.09;;;12.43;58.75
31121;BME280;17770;45.966;13.632;2023-01-29T00:58:16;101337.56;;;12.44;59.74
31121;BME280;17770;45.966;13.632;2023-01-29T01:00:47;101337.59;;;12.43;59.21
31121;BME280;17770;45.966;13.632;2023-01-29T01:03:14;101337.59;;;12.43;59.58
31121;BME280;17770;45.966;13.632;2023-01-29T01:05:40;101336.72;;;12.44;59.03
31121;BME280;17770;45.966;13.632;2023-01-29T01:08:07;101340.19;;;12.43;59.10
31121;BME280;17770;45.966;13.632;2023-01-29T01:11:01;101342.72;;;12.46;59.02
31121;BME280;17770;45.966;13.632;2023-01-29T01:13:27;101339.28;;;12.44;58.99
31121;BME280;17770;45.966;13.632;2023-01-29T01:15:53;101339.28;;;12.44;59.24
31121;BME280;17770;45.966;13.632;2023-01-29T01:18:19;101349.59;;;12.45;59.37
31121;BME280;17770;45.966;13.632;2023-01-29T01:20:47;101345.31;;;12.44;58.59
31121;BME280;17770;45.966;13.632;2023-01-29T01:23:17;101339.28;;;12.44;59.45
31121;BME280;17770;45.966;13.632;2023-01-29T01:25:43;101347.94;;;12.43;58.58
31121;BME280;17770;45.966;13.632;2023-01-29T01:28:08;101349.66;;;12.44;59.18
31121;BME280;17770;45.966;13.632;2023-01-29T01:30:35;101349.66;;;12.44;58.72
31121;BME280;17770;45.966;13.632;2023-01-29T01:33:01;101344.50;;;12.42;58.98
31121;BME280;17770;45.966;13.632;2023-01-29T01:35:27;101354.84;;;12.42;58.56
31121;BME280;17770;45.966;13.632;2023-01-29T01:37:53;101355.72;;;12.43;59.04
31121;BME280;17770;45.966;13.632;2023-01-29T01:40:20;101356.53;;;12.43;58.17
31121;BME280;17770;45.966;13.632;2023-01-29T01:42:47;101363.44;;;12.44;58.70
31121;BME280;17770;45.966;13.632;2023-01-29T01:45:18;101354.00;;;12.42;59.15
31121;BME280;17770;45.966;13.632;2023-01-29T01:47:51;101356.53;;;12.43;59.00
31121;BME280;17770;45.966;13.632;2023-01-29T01:52:48;101364.25;;;12.45;58.69
31121;BME280;17770;45.966;13.632;2023-01-29T01:55:16;101355.69;;;12.44;59.66
31121;BME280;17770;45.966;13.632;2023-01-29T01:57:43;101348.78;;;12.43;59.05
31121;BME280;17770;45.966;13.632;2023-01-29T02:00:13;101352.22;;;12.44;59.07
31121;BME280;17770;45.966;13.632;2023-01-29T02:02:41;101352.22;;;12.44;58.97
31121;BME280;17770;45.966;13.632;2023-01-29T02:05:27;101353.13;;;12.43;58.85
31121;BME280;17770;45.966;13.632;2023-01-29T02:08:11;101354.88;;;12.41;58.62
31121;BME280;17770;45.966;13.632;2023-01-29T02:10:56;101350.53;;;12.43;58.95
31121;BME280;17770;45.966;13.632;2023-01-29T02:13:22;101354.81;;;12.44;59.35
31121;BME280;17770;45.966;13.632;2023-01-29T02:15:48;101350.50;;;12.44;58.46
31121;BME280;17770;45.966;13.632;2023-01-29T02:18:15;101355.72;;;12.41;58.86
31121;BME280;17770;45.966;13.632;2023-01-29T02:20:47;101341.91;;;12.42;58.38
31121;BME280;17770;45.966;13.632;2023-01-29T02:23:20;101341.03;;;12.43;58.70
31121;BME280;17770;45.966;13.632;2023-01-29T02:28:23;101354.84;;;12.42;58.77
31121;BME280;17770;45.966;13.632;2023-01-29T02:31:00;101345.38;;;12.43;59.17
31121;BME280;17770;45.966;13.632;2023-01-29T02:39:11;101360.06;;;12.41;58.58
31121;BME280;17770;45.966;13.632;2023-01-29T02:41:43;101368.66;;;12.41;58.70
31121;BME280;17770;45.966;13.632;2023-01-29T02:46:49;101368.66;;;12.43;58.55
31121;BME280;17770;45.966;13.632;2023-01-29T02:49:21;101375.53;;;12.42;58.49
31121;BME280;17770;45.966;13.632;2023-01-29T02:54:23;101385.84;;;12.44;58.82
31121;BME280;17770;45.966;13.632;2023-01-29T02:59:41;101381.59;;;12.41;58.11
31121;BME280;17770;45.966;13.632;2023-01-29T03:02:16;101378.16;;;12.41;59.16
31121;BME280;17770;45.966;13.632;2023-01-29T03:04:46;101379.88;;;12.40;58.45
31121;BME280;17770;45.966;13.632;2023-01-29T03:07:16;101383.34;;;12.41;58.75
31121;BME280;17770;45.966;13.632;2023-01-29T03:10:08;101389.38;;;12.40;59.28
31121;BME280;17770;45.966;13.632;2023-01-29T03:12:37;101389.34;;;12.41;58.88
31121;BME280;17770;45.966;13.632;2023-01-29T03:15:10;101389.38;;;12.40;59.58
31121;BME280;17770;45.966;13.632;2023-01-29T03:20:21;101386.75;;;12.41;58.67
31121;BME280;17770;45.966;13.632;2023-01-29T03:22:58;101382.47;;;12.40;58.46
31121;BME280;17770;45.966;13.632;2023-01-29T03:25:26;101391.09;;;12.41;59.17
31121;BME280;17770;45.966;13.632;2023-01-29T03:28:11;101385.06;;;12.40;58.53
31121;BME280;17770;45.966;13.632;2023-01-29T03:30:59;101391.09;;;12.41;59.14
31121;BME280;17770;45.966;13.632;2023-01-29T03:33:59;101401.44;;;12.41;59.02
31121;BME280;17770;45.966;13.632;2023-01-29T03:36:28;101396.28;;;12.41;59.68
31121;BME280;17770;45.966;13.632;2023-01-29T03:39:03;101394.53;;;12.40;59.58
31121;BME280;17770;45.966;13.632;2023-01-29T03:41:52;101390.19;;;12.42;59.08
31121;BME280;17770;45.966;13.632;2023-01-29T03:44:22;101383.34;;;12.41;59.17
31121;BME280;17770;45.966;13.632;2023-01-29T03:51:59;101382.47;;;12.40;59.41
31121;BME280;17770;45.966;13.632;2023-01-29T03:55:03;101373.03;;;12.39;58.76
31121;BME280;17770;45.966;13.632;2023-01-29T04:00:15;101391.97;;;12.40;58.67
31121;BME280;17770;45.966;13.632;2023-01-29T04:02:55;101392.81;;;12.40;59.15
31121;BME280;17770;45.966;13.632;2023-01-29T04:05:24;101398.94;;;12.38;58.76
31121;BME280;17770;45.966;13.632;2023-01-29T04:08:16;101392.84;;;12.39;59.23
31121;BME280;17770;45.966;13.632;2023-01-29T04:10:46;101386.78;;;12.40;58.86
31121;BME280;17770;45.966;13.632;2023-01-29T04:13:13;101392.84;;;12.39;58.27
31121;BME280;17770;45.966;13.632;2023-01-29T04:15:44;101400.56;;;12.42;58.22
31121;BME280;17770;45.966;13.632;2023-01-29T04:18:11;101395.47;;;12.37;59.27
31121;BME280;17770;45.966;13.632;2023-01-29T04:20:55;101397.16;;;12.38;58.98
31121;BME280;17770;45.966;13.632;2023-01-29T04:23:23;101398.03;;;12.39;58.51
31121;BME280;17770;45.966;13.632;2023-01-29T04:25:56;101400.63;;;12.39;58.78
31121;BME280;17770;45.966;13.632;2023-01-29T04:28:41;101398.88;;;12.39;58.61
31121;BME280;17770;45.966;13.632;2023-01-29T04:31:11;101392.00;;;12.38;58.88
31121;BME280;17770;45.966;13.632;2023-01-29T04:46:26;101394.59;;;12.38;58.86
31121;BME280;17770;45.966;13.632;2023-01-29T04:48:58;101388.56;;;12.38;58.35
31121;BME280;17770;45.966;13.632;2023-01-29T04:54:00;101389.44;;;12.37;58.78
31121;BME280;17770;45.966;13.632;2023-01-29T04:56:30;101388.56;;;12.36;58.39
31121;BME280;17770;45.966;13.632;2023-01-29T04:59:01;101389.44;;;12.37;58.67
31121;BME280;17770;45.966;13.632;2023-01-29T05:01:30;101386.88;;;12.35;59.19
31121;BME280;17770;45.966;13.632;2023-01-29T05:03:58;101389.44;;;12.37;59.09
31121;BME280;17770;45.966;13.632;2023-01-29T05:06:25;101386.84;;;12.37;58.96
31121;BME280;17770;45.966;13.632;2023-01-29T05:08:51;101385.13;;;12.37;59.18
31121;BME280;17770;45.966;13.632;2023-01-29T05:11:18;101377.41;;;12.36;58.09
31121;BME280;17770;45.966;13.632;2023-01-29T05:13:44;101385.16;;;12.36;59.08
31121;BME280;17770;45.966;13.632;2023-01-29T05:18:41;101386.84;;;12.37;59.19
31121;BME280;17770;45.966;13.632;2023-01-29T05:21:07;101381.72;;;12.35;59.23
31121;BME280;17770;45.966;13.632;2023-01-29T05:23:34;101390.34;;;12.36;59.37
31121;BME280;17770;45.966;13.632;2023-01-29T05:26:00;101389.44;;;12.37;59.10
31121;BME280;17770;45.966;13.632;2023-01-29T05:28:26;101396.34;;;12.36;59.37
31121;BME280;17770;45.966;13.632;2023-01-29T05:30:52;101395.50;;;12.36;58.35
31121;BME280;17770;45.966;13.632;2023-01-29T05:33:20;101401.50;;;12.36;58.90
31121;BME280;17770;45.966;13.632;2023-01-29T05:35:47;101403.31;;;12.34;59.56
31121;BME280;17770;45.966;13.632;2023-01-29T05:38:13;101403.28;;;12.36;59.29
31121;BME280;17770;45.966;13.632;2023-01-29T05:40:39;101411.03;;;12.36;58.60
31121;BME280;17770;45.966;13.632;2023-01-29T05:43:12;101403.31;;;12.34;58.48
31121;BME280;17770;45.966;13.632;2023-01-29T05:45:38;101404.97;;;12.37;59.13
31121;BME280;17770;45.966;13.632;2023-01-29T05:48:04;101403.28;;;12.36;59.15
31121;BME280;17770;45.966;13.632;2023-01-29T05:50:30;101406.72;;;12.35;58.60
31121;BME280;17770;45.966;13.632;2023-01-29T05:52:57;101404.13;;;12.35;59.13
31121;BME280;17770;45.966;13.632;2023-01-29T05:55:23;101413.66;;;12.34;59.12
31121;BME280;17770;45.966;13.632;2023-01-29T05:57:49;101403.28;;;12.36;58.55
31121;BME280;17770;45.966;13.632;2023-01-29T06:00:15;101410.16;;;12.35;58.94
31121;BME280;17770;45.966;13.632;2023-01-29T06:02:41;101411.91;;;12.35;58.80
31121;BME280;17770;45.966;13.632;2023-01-29T06:05:07;101414.44;;;12.36;58.67
31121;BME280;17770;45.966;13.632;2023-01-29T06:07:33;101417.03;;;12.36;59.38
31121;BME280;17770;45.966;13.632;2023-01-29T06:09:59;101411.91;;;12.35;59.43
31121;BME280;17770;45.966;13.632;2023-01-29T06:12:25;101419.66;;;12.35;58.68
31121;BME280;17770;45.966;13.632;2023-01-29T06:14:51;101417.94;;;12.35;59.03
31121;BME280;17770;45.966;13.632;2023-01-29T06:17:17;101425.66;;;12.37;58.84
31121;BME280;17770;45.966;13.632;2023-01-29T06:19:43;101431.75;;;12.34;58.39
31121;BME280;17770;45.966;13.632;2023-01-29T06:22:09;101436.03;;;12.35;58.57
31121;BME280;17770;45.966;13.632;2023-01-29T06:24:35;101436.94;;;12.34;58.08
31121;BME280;17770;45.966;13.632;2023-01-29T06:27:00;101436.06;;;12.34;58.95
31121;BME280;17770;45.966;13.632;2023-01-29T06:29:26;101440.38;;;12.33;59.14
31121;BME280;17770;45.966;13.632;2023-01-29T06:31:52;101438.66;;;12.34;59.17
31121;BME280;17770;45.966;13.632;2023-01-29T06:34:18;101433.50;;;12.32;58.65
31121;BME280;17770;45.966;13.632;2023-01-29T06:36:44;101434.38;;;12.33;58.05
31121;BME280;17770;45.966;13.632;2023-01-29T06:39:09;101442.97;;;12.33;59.60
31121;BME280;17770;45.966;13.632;2023-01-29T06:41:35;101442.09;;;12.34;58.69
31121;BME280;17770;45.966;13.632;2023-01-29T06:44:01;101444.72;;;12.33;58.88
31121;BME280;17770;45.966;13.632;2023-01-29T06:46:27;101449.88;;;12.33;59.34
31121;BME280;17770;45.966;13.632;2023-01-29T06:48:53;101464.53;;;12.32;58.91
31121;BME280;17770;45.966;13.632;2023-01-29T06:51:19;101466.25;;;12.33;59.36
31121;BME280;17770;45.966;13.632;2023-01-29T06:53:45;101460.22;;;12.33;59.50
31121;BME280;17770;45.966;13.632;2023-01-29T06:56:11;101469.69;;;12.34;59.15
31121;BME280;17770;45.966;13.632;2023-01-29T06:58:37;101466.28;;;12.32;58.90
31121;BME280;17770;45.966;13.632;2023-01-29T07:01:07;101469.72;;;12.32;58.32
31121;BME280;17770;45.966;13.632;2023-01-29T07:03:34;101480.94;;;12.33;59.03
31121;BME280;17770;45.966;13.632;2023-01-29T07:05:59;101470.59;;;12.33;58.63
31121;BME280;17770;45.966;13.632;2023-01-29T07:08:25;101477.47;;;12.32;59.12
31121;BME280;17770;45.966;13.632;2023-01-29T07:10:52;101479.19;;;12.32;58.64
31121;BME280;17770;45.966;13.632;2023-01-29T07:13:22;101479.19;;;12.32;58.60
31121;BME280;17770;45.966;13.632;2023-01-29T07:15:48;101487.81;;;12.32;58.69
31121;BME280;17770;45.966;13.632;2023-01-29T07:18:14;101488.69;;;12.33;59.27
31121;BME280;17770;45.966;13.632;2023-01-29T07:20:40;101498.16;;;12.32;58.27
31121;BME280;17770;45.966;13.632;2023-01-29T07:23:08;101499.91;;;12.32;59.21
31121;BME280;17770;45.966;13.632;2023-01-29T07:25:35;101496.44;;;12.33;58.82
31121;BME280;17770;45.966;13.632;2023-01-29T07:28:01;101494.72;;;12.32;58.39
31121;BME280;17770;45.966;13.632;2023-01-29T07:30:27;101504.19;;;12.33;58.89
31121;BME280;17770;45.966;13.632;2023-01-29T07:32:53;101504.19;;;12.33;58.89
31121;BME280;17770;45.966;13.632;2023-01-29T07:35:19;101509.38;;;12.33;58.42
31121;BME280;17770;45.966;13.632;2023-01-29T07:37:48;101517.13;;;12.31;58.92
31121;BME280;17770;45.966;13.632;2023-01-29T07:40:15;101516.28;;;12.32;58.76
31121;BME280;17770;45.966;13.632;2023-01-29T07:42:40;101524.91;;;12.33;58.42
31121;BME280;17770;45.966;13.632;2023-01-29T07:45:08;101513.69;;;12.32;58.89
31121;BME280;17770;45.966;13.632;2023-01-29T07:47:35;101516.28;;;12.32;58.40
31121;BME280;17770;45.966;13.632;2023-01-29T07:50:01;101518.88;;;12.31;59.10
31121;BME280;17770;45.966;13.632;2023-01-29T07:52:30;101515.41;;;12.32;58.69
31121;BME280;17770;45.966;13.632;2023-01-29T07:54:56;101522.31;;;12.33;58.42
31121;BME280;17770;45.966;13.632;2023-01-29T07:57:22;101517.13;;;12.31;59.44
31121;BME280;17770;45.966;13.632;2023-01-29T07:59:48;101521.44;;;12.32;58.95
31121;BME280;17770;45.966;13.632;2023-01-29T08:02:14;101511.13;;;12.31;58.75
31121;BME280;17770;45.966;13.632;2023-01-29T08:04:40;101518.03;;;12.30;59.12
31121;BME280;17770;45.966;13.632;2023-01-29T08:07:06;101509.38;;;12.31;58.93
31121;BME280;17770;45.966;13.632;2023-01-29T08:09:34;101505.09;;;12.30;58.58
31121;BME280;17770;45.966;13.632;2023-01-29T08:12:00;101511.13;;;12.31;58.89
31121;BME280;17770;45.966;13.632;2023-01-29T08:14:26;101515.41;;;12.32;58.97
31121;BME280;17770;45.966;13.632;2023-01-29T08:16:52;101519.72;;;12.31;58.79
31121;BME280;17770;45.966;13.632;2023-01-29T08:19:18;101527.47;;;12.31;58.92
31121;BME280;17770;45.966;13.632;2023-01-29T08:21:44;101532.66;;;12.31;59.02
31121;BME280;17770;45.966;13.632;2023-01-29T08:24:10;101528.34;;;12.32;59.00
31121;BME280;17770;45.966;13.632;2023-01-29T08:26:35;101530.06;;;12.31;58.09
31121;BME280;17770;45.966;13.632;2023-01-29T08:29:01;101527.47;;;12.31;59.33
31121;BME280;17770;45.966;13.632;2023-01-29T08:31:27;101529.22;;;12.31;59.02
31121;BME280;17770;45.966;13.632;2023-01-29T08:33:53;101527.47;;;12.31;58.04
31121;BME280;17770;45.966;13.632;2023-01-29T08:36:23;101522.31;;;12.31;58.54
31121;BME280;17770;45.966;13.632;2023-01-29T08:38:49;101514.53;;;12.31;59.08
31121;BME280;17770;45.966;13.632;2023-01-29T08:41:15;101513.72;;;12.31;59.24
31121;BME280;17770;45.966;13.632;2023-01-29T08:43:40;101512.81;;;12.32;59.06
31121;BME280;17770;45.966;13.632;2023-01-29T08:46:07;101507.66;;;12.32;59.51
31121;BME280;17770;45.966;13.632;2023-01-29T08:48:33;101510.25;;;12.32;58.54
31121;BME280;17770;45.966;13.632;2023-01-29T08:50:59;101507.66;;;12.32;58.58
31121;BME280;17770;45.966;13.632;2023-01-29T08:53:26;101520.59;;;12.32;58.50
31121;BME280;17770;45.966;13.632;2023-01-29T08:55:52;101521.47;;;12.31;59.12
31121;BME280;17770;45.966;13.632;2023-01-29T08:58:18;101518.84;;;12.32;58.98
31121;BME280;17770;45.966;13.632;2023-01-29T09:00:44;101518.00;;;12.32;59.14
31121;BME280;17770;45.966;13.632;2023-01-29T09:03:09;101515.44;;;12.30;58.61
31121;BME280;17770;45.966;13.632;2023-01-29T09:05:36;101512.81;;;12.32;59.23
31121;BME280;17770;45.966;13.632;2023-01-29T09:08:03;101527.47;;;12.31;59.21
31121;BME280;17770;45.966;13.632;2023-01-29T09:10:29;101524.03;;;12.32;58.95
31121;BME280;17770;45.966;13.632;2023-01-29T09:12:55;101523.19;;;12.30;59.31
31121;BME280;17770;45.966;13.632;2023-01-29T09:15:21;101524.91;;;12.33;59.00
31121;BME280;17770;45.966;13.632;2023-01-29T09:17:47;101516.31;;;12.31;58.28
31121;BME280;17770;45.966;13.632;2023-01-29T09:20:16;101532.66;;;12.31;58.69
31121;BME280;17770;45.966;13.632;2023-01-29T09:22:41;101523.16;;;12.32;58.54
31121;BME280;17770;45.966;13.632;2023-01-29T09:25:07;101521.44;;;12.32;59.14
31121;BME280;17770;45.966;13.632;2023-01-29T09:27:33;101525.75;;;12.32;59.24
31121;BME280;17770;45.966;13.632;2023-01-29T09:29:59;101530.06;;;12.31;58.51
31121;BME280;17770;45.966;13.632;2023-01-29T09:32:25;101526.66;;;12.31;58.94
31121;BME280;17770;45.966;13.632;2023-01-29T09:34:51;101530.06;;;12.31;59.06
31121;BME280;17770;45.966;13.632;2023-01-29T09:37:17;101525.75;;;12.32;58.50
31121;BME280;17770;45.966;13.632;2023-01-29T09:39:43;101522.31;;;12.31;58.49
31121;BME280;17770;45.966;13.632;2023-01-29T09:47:28;101531.81;;;12.31;59.55
31121;BME280;17770;45.966;13.632;2023-01-29T09:49:56;101529.22;;;12.31;58.93
31121;BME280;17770;45.966;13.632;2023-01-29T09:52:29;101530.97;;;12.30;59.05
31121;BME280;17770;45.966;13.632;2023-01-29T09:57:33;101527.50;;;12.30;58.66
31121;BME280;17770;45.966;13.632;2023-01-29T10:00:04;101515.44;;;12.30;59.07
31121;BME280;17770;45.966;13.632;2023-01-29T10:10:13;101507.66;;;12.32;58.48
31121;BME280;17770;45.966;13.632;2023-01-29T10:22:52;101492.09;;;12.33;59.16
31121;BME280;17770;45.966;13.632;2023-01-29T10:25:21;101497.25;;;12.35;59.32
31121;BME280;17770;45.966;13.632;2023-01-29T10:27:49;101493.81;;;12.34;58.77
31121;BME280;17770;45.966;13.632;2023-01-29T10:30:38;101490.38;;;12.34;59.09
31121;BME280;17770;45.966;13.632;2023-01-29T10:33:03;101485.22;;;12.34;59.37
31121;BME280;17770;45.966;13.632;2023-01-29T10:35:40;101484.34;;;12.33;59.41
31121;BME280;17770;45.966;13.632;2023-01-29T10:40:55;101483.50;;;12.33;58.85
31121;BME280;17770;45.966;13.632;2023-01-29T10:48:39;101473.13;;;12.34;58.64
31121;BME280;17770;45.966;13.632;2023-01-29T10:51:14;101463.63;;;12.35;59.16
31121;BME280;17770;45.966;13.632;2023-01-29T10:58:54;101452.44;;;12.34;58.60
31121;BME280;17770;45.966;13.632;2023-01-29T11:01:21;101450.72;;;12.33;58.89
31121;BME280;17770;45.966;13.632;2023-01-29T11:03:57;101442.09;;;12.34;58.64
31121;BME280;17770;45.966;13.632;2023-01-29T11:14:50;101426.53;;;12.36;59.29
31121;BME280;17770;45.966;13.632;2023-01-29T11:17:19;101427.41;;;12.35;59.30
31121;BME280;17770;45.966;13.632;2023-01-29T11:19:46;101430.84;;;12.35;58.24
31121;BME280;17770;45.966;13.632;2023-01-29T11:22:16;101427.38;;;12.36;58.64
31121;BME280;17770;45.966;13.632;2023-01-29T11:24:42;101419.63;;;12.36;58.61
31121;BME280;17770;45.966;13.632;2023-01-29T11:27:14;101412.75;;;12.35;58.33
31121;BME280;17770;45.966;13.632;2023-01-29T11:29:46;101402.44;;;12.34;58.73
31121;BME280;17770;45.966;13.632;2023-01-29T11:32:13;101404.13;;;12.35;58.49
31121;BME280;17770;45.966;13.632;2023-01-29T11:37:34;101396.34;;;12.36;58.46
31121;BME280;17770;45.966;13.632;2023-01-29T11:40:00;101392.03;;;12.37;59.08
31121;BME280;17770;45.966;13.632;2023-01-29T11:42:29;101388.56;;;12.38;58.90
31121;BME280;17770;45.966;13.632;2023-01-29T11:44:55;101390.31;;;12.37;59.31
31121;BME280;17770;45.966;13.632;2023-01-29T11:47:27;101395.44;;;12.39;58.83
31121;BME280;17770;45.966;13.632;2023-01-29T11:49:57;101386.81;;;12.38;58.65
31121;BME280;17770;45.966;13.632;2023-01-29T11:52:26;101384.25;;;12.38;58.86
31121;BME280;17770;45.966;13.632;2023-01-29T11:54:59;101380.81;;;12.38;59.04
31121;BME280;17770;45.966;13.632;2023-01-29T11:57:34;101379.06;;;12.38;59.15
31121;BME280;17770;45.966;13.632;2023-01-29T12:00:04;101379.06;;;12.38;59.28
31121;BME280;17770;45.966;13.632;2023-01-29T12:02:43;101374.75;;;12.39;59.41
31121;BME280;17770;45.966;13.632;2023-01-29T12:07:39;101371.34;;;12.37;58.75
31121;BME280;17770;45.966;13.632;2023-01-29T12:10:26;101367.94;;;12.35;58.63
31121;BME280;17770;45.966;13.632;2023-01-29T12:12:51;101355.84;;;12.35;58.93
31121;BME280;17770;45.966;13.632;2023-01-29T12:15:28;101351.53;;;12.36;58.86
31121;BME280;17770;45.966;13.632;2023-01-29T12:20:24;101354.16;;;12.34;58.51
31121;BME280;17770;45.966;13.632;2023-01-29T12:22:58;101354.16;;;12.34;58.41
31121;BME280;17770;45.966;13.632;2023-01-29T12:28:32;101344.66;;;12.35;58.58
31121;BME280;17770;45.966;13.632;2023-01-29T12:31:11;101351.56;;;12.34;58.58
31121;BME280;17770;45.966;13.632;2023-01-29T12:38:43;101342.06;;;12.35;58.62
31121;BME280;17770;45.966;13.632;2023-01-29T12:41:29;101341.19;;;12.36;58.74
31121;BME280;17770;45.966;13.632;2023-01-29T12:44:09;101341.22;;;12.34;58.09
31121;BME280;17770;45.966;13.632;2023-01-29T12:46:37;101332.56;;;12.35;58.50
31121;BME280;17770;45.966;13.632;2023-01-29T12:49:08;101328.25;;;12.36;59.32
31121;BME280;17770;45.966;13.632;2023-01-29T12:51:37;101312.75;;;12.36;59.31
31121;BME280;17770;45.966;13.632;2023-01-29T12:54:08;101312.75;;;12.36;58.89
31121;BME280;17770;45.966;13.632;2023-01-29T12:56:41;101320.47;;;12.37;58.32
31121;BME280;17770;45.966;13.632;2023-01-29T12:59:19;101319.59;;;12.37;59.30
31121;BME280;17770;45.966;13.632;2023-01-29T13:01:49;101317.84;;;12.39;59.51
31121;BME280;17770;45.966;13.632;2023-01-29T13:04:39;101312.69;;;12.39;59.37
31121;BME280;17770;45.966;13.632;2023-01-29T13:07:25;101317.00;;;12.38;59.70
31121;BME280;17770;45.966;13.632;2023-01-29T13:09:50;101323.88;;;12.39;58.87
31121;BME280;17770;45.966;13.632;2023-01-29T13:12:19;101323.84;;;12.41;58.96
31121;BME280;17770;45.966;13.632;2023-01-29T13:14:59;101334.22;;;12.39;59.92
31121;BME280;17770;45.966;13.632;2023-01-29T13:17:41;101330.78;;;12.39;58.33
31121;BME280;17770;45.966;13.632;2023-01-29T13:20:19;101329.88;;;12.40;59.53
31121;BME280;17770;45.966;13.632;2023-01-29T13:22:47;101317.81;;;12.40;59.07
31121;BME280;17770;45.966;13.632;2023-01-29T13:25:15;101302.28;;;12.40;58.86
31121;BME280;17770;45.966;13.632;2023-01-29T13:27:41;101295.34;;;12.42;59.51
31121;BME280;17770;45.966;13.632;2023-01-29T13:30:21;101287.59;;;12.42;59.11
31121;BME280;17770;45.966;13.632;2023-01-29T13:32:49;101293.63;;;12.43;59.09
31121;BME280;17770;45.966;13.632;2023-01-29T13:35:16;101299.66;;;12.42;59.91
31121;BME280;17770;45.966;13.632;2023-01-29T13:37:49;101297.03;;;12.43;59.75
31121;BME280;17770;45.966;13.632;2023-01-29T13:40:26;101299.59;;;12.45;59.14
31121;BME280;17770;45.966;13.632;2023-01-29T13:42:52;101298.72;;;12.46;59.64
31121;BME280;17770;45.966;13.632;2023-01-29T13:45:24;101290.09;;;12.45;59.66
31121;BME280;17770;45.966;13.632;2023-01-29T13:47:54;101295.28;;;12.45;59.83
31121;BME280;17770;45.966;13.632;2023-01-29T13:50:39;101299.56;;;12.46;60.08
31121;BME280;17770;45.966;13.632;2023-01-29T13:53:06;101298.69;;;12.47;60.43
31121;BME280;17770;45.966;13.632;2023-01-29T13:55:34;101296.94;;;12.48;59.99
31121;BME280;17770;45.966;13.632;2023-01-29T13:58:04;101291.75;;;12.49;59.73
31121;BME280;17770;45.966;13.632;2023-01-29T14:10:41;101277.88;;;12.52;59.71
31121;BME280;17770;45.966;13.632;2023-01-29T14:15:36;101277.00;;;12.53;59.91
31121;BME280;17770;45.966;13.632;2023-01-29T14:25:48;101259.66;;;12.56;59.46
31121;BME280;17770;45.966;13.632;2023-01-29T14:28:17;101265.66;;;12.58;60.86
31121;BME280;17770;45.966;13.632;2023-01-29T14:30:47;101267.38;;;12.58;60.29
31121;BME280;17770;45.966;13.632;2023-01-29T14:33:58;101265.63;;;12.60;60.90
31121;BME280;17770;45.966;13.632;2023-01-29T14:36:03;101259.59;;;12.59;59.69
31121;BME280;17770;45.966;13.632;2023-01-29T14:38:30;101270.75;;;12.61;59.89
31121;BME280;17770;45.966;13.632;2023-01-29T14:41:02;101269.03;;;12.62;60.55
31121;BME280;17770;45.966;13.632;2023-01-29T14:43:29;101274.16;;;12.63;60.63
31121;BME280;17770;45.966;13.632;2023-01-29T14:45:54;101270.72;;;12.63;60.29
31121;BME280;17770;45.966;13.632;2023-01-29T14:48:49;101273.28;;;12.64;59.66
31121;BME280;17770;45.966;13.632;2023-01-29T14:51:16;101275.00;;;12.65;59.88
31121;BME280;17770;45.966;13.632;2023-01-29T14:58:43;101274.94;;;12.67;60.18
31121;BME280;17770;45.966;13.632;2023-01-29T15:01:53;101275.78;;;12.69;60.49
31121;BME280;17770;45.966;13.632;2023-01-29T15:04:33;101281.78;;;12.69;59.65
31121;BME280;17770;45.966;13.632;2023-01-29T15:07:02;101276.59;;;12.69;60.00
31121;BME280;17770;45.966;13.632;2023-01-29T15:09:33;101274.88;;;12.70;59.46